Terminal Aerodrome Forecast
Issued by NWS Springfield, MO

Home | Current Version | Previous Version | Text Only | Print | Product List | Glossary On
Versions: 1 2 3 4 5 6 7 8 9 10 11 12 13 14 15
000
FTUS43 KSGF 300500
TAFSGF
TAF
KSGF 300520Z 3006/3106 VRB03KT P6SM BKN100
     FM301400 23006KT P6SM VCSH BKN070 OVC200
     FM301800 23006KT P6SM VCSH OVC050=

USA.gov is the U.S. government's official web portal to all federal, state and local government web resources and services.